.
WxDataArchive / Data Records for 2006-01-16
2006-01-15 January 2006 2006-01-17

Data Records for Monday, 16 January 2006

Time	Temp	Chill	HIndex	Humid	Dewpt	 Wind 	HiWind	WindDir	Rain 	Barom 
-----	----	-----	------	-----	-----	------	------	-------	-----	----- 
00:00	30.4	26.2	30.4	83	25.9	4	9	112	0.00	29.795 
00:05	30.3	25.1	30.3	83	25.8	5	10	112	0.00	29.795 
00:10	30.3	25.1	30.3	83	25.8	5	9	112	0.00	29.795 
00:15	30.1	25.9	30.1	83	25.6	4	7	112	0.00	29.783 
00:20	30.1	24.8	30.1	83	25.6	5	9	112	0.00	29.783 
00:25	30.0	25.8	30.0	84	25.8	4	10	112	0.00	29.783 
00:30	30.0	25.8	30.0	84	25.8	4	7	112	0.00	29.775 
00:35	29.8	25.5	29.8	84	25.6	4	8	112	0.00	29.775 
00:40	29.8	29.8	29.8	84	25.6	3	7	112	0.00	29.775 
00:45	29.8	24.5	29.8	84	25.6	5	10	112	0.00	29.762 
00:50	29.8	25.5	29.8	84	25.6	4	9	112	0.00	29.762 
00:55	29.7	25.4	29.7	84	25.5	4	6	112	0.00	29.762 
01:00	29.7	25.4	29.7	84	25.5	4	10	90	0.00	29.756 
01:05	29.7	29.7	29.7	84	25.5	3	8	112	0.00	29.756 
01:10	29.5	29.5	29.5	84	25.3	3	7	112	0.00	29.756 
01:15	29.5	29.5	29.5	83	25.0	3	6	112	0.00	29.756 
01:20	29.5	29.5	29.5	83	25.0	2	5	112	0.00	29.756 
01:25	29.5	29.5	29.5	84	25.3	2	5	112	0.00	29.756 
01:30	29.4	29.4	29.4	84	25.2	2	4	90	0.00	29.751 
01:35	29.4	29.4	29.4	84	25.2	2	5	90	0.00	29.751 
01:40	29.3	29.3	29.3	84	25.1	2	4	90	0.00	29.751 
01:45	29.3	29.3	29.3	84	25.1	2	4	90	0.00	29.749 
01:50	29.3	29.3	29.3	84	25.1	2	4	90	0.00	29.749 
01:55	29.3	29.3	29.3	84	25.1	2	4	90	0.00	29.749 
02:00	29.3	29.3	29.3	84	25.1	3	5	112	0.00	29.748 
02:05	29.3	29.3	29.3	84	25.1	2	4	90	0.00	29.748 
02:10	29.3	29.3	29.3	84	25.1	3	5	90	0.00	29.748 
02:15	29.1	29.1	29.1	84	24.9	2	4	112	0.00	29.746 
02:20	29.1	29.1	29.1	84	24.9	2	3	112	0.00	29.746 
02:25	29.0	29.0	29.0	84	24.8	2	4	90	0.00	29.746 
02:30	29.0	29.0	29.0	84	24.8	2	4	90	0.00	29.748 
02:35	29.0	29.0	29.0	84	24.8	2	4	90	0.00	29.748 
02:40	29.0	29.0	29.0	84	24.8	2	4	90	0.00	29.748 
02:45	29.0	29.0	29.0	84	24.8	2	4	90	0.00	29.748 
02:50	28.8	28.8	28.8	84	24.6	2	3	90	0.00	29.748 
02:55	28.8	28.8	28.8	84	24.6	2	4	90	0.00	29.748 
03:00	28.7	28.7	28.7	84	24.5	2	4	112	0.00	29.745 
03:05	28.7	28.7	28.7	84	24.5	2	4	90	0.00	29.745 
03:10	28.5	28.5	28.5	84	24.3	2	4	90	0.00	29.745 
03:15	28.4	28.4	28.4	84	24.2	1	3	90	0.00	29.740 
03:20	28.2	28.2	28.2	85	24.3	2	4	90	0.00	29.740 
03:25	28.2	28.2	28.2	85	24.3	2	4	112	0.00	29.740 
03:30	28.1	28.1	28.1	85	24.2	1	3	112	0.00	29.739 
03:35	28.1	28.1	28.1	85	24.2	1	3	90	0.00	29.739 
03:40	27.9	27.9	27.9	85	24.0	2	4	90	0.00	29.739 
03:45	27.9	27.9	27.9	85	24.0	1	3	90	0.00	29.730 
03:50	27.9	27.9	27.9	85	24.0	2	4	90	0.00	29.730 
03:55	27.8	27.8	27.8	85	23.9	1	3	112	0.00	29.730 
04:00	27.8	27.8	27.8	86	24.2	1	4	112	0.00	29.727 
04:05	27.8	27.8	27.8	86	24.2	2	5	90	0.00	29.727 
04:10	27.6	27.6	27.6	86	24.0	1	2	90	0.00	29.727 
04:15	27.6	27.6	27.6	86	24.0	1	2	90	0.00	29.719 
04:20	27.6	27.6	27.6	86	24.0	1	3	90	0.00	29.719 
04:25	27.6	27.6	27.6	86	24.0	2	4	90	0.00	29.719 
04:30	27.6	27.6	27.6	86	24.0	2	4	112	0.00	29.712 
04:35	27.5	27.5	27.5	86	23.9	2	4	90	0.00	29.712 
04:40	27.6	27.6	27.6	86	24.0	2	5	90	0.00	29.712 
04:45	27.6	27.6	27.6	85	23.7	2	5	90	0.00	29.708 
04:50	27.6	27.6	27.6	85	23.7	2	7	90	0.00	29.708 
04:55	27.6	27.6	27.6	85	23.7	2	5	90	0.00	29.708 
05:00	27.6	27.6	27.6	85	23.7	2	4	90	0.00	29.702 
05:05	27.6	27.6	27.6	85	23.7	2	6	112	0.00	29.702 
05:10	27.6	27.6	27.6	85	23.7	2	5	90	0.00	29.702 
05:15	27.6	27.6	27.6	85	23.7	3	6	112	0.00	29.696 
05:20	27.8	27.8	27.8	85	23.9	3	6	90	0.00	29.696 
05:25	27.6	27.6	27.6	85	23.7	2	4	112	0.00	29.696 
05:30	27.6	27.6	27.6	85	23.7	2	5	90	0.00	29.696 
05:35	27.8	27.8	27.8	84	23.6	2	6	90	0.00	29.696 
05:40	27.8	27.8	27.8	84	23.6	2	5	90	0.00	29.696 
05:45	27.8	27.8	27.8	84	23.6	2	4	90	0.00	29.700 
05:50	27.8	27.8	27.8	84	23.6	1	3	90	0.00	29.700 
05:55	27.8	27.8	27.8	84	23.6	1	3	90	0.00	29.700 
06:00	27.6	27.6	27.6	84	23.4	1	4	90	0.00	29.701 
06:05	27.6	27.6	27.6	84	23.4	1	3	90	0.00	29.701 
06:10	27.6	27.6	27.6	84	23.4	2	4	90	0.00	29.701 
06:15	27.6	27.6	27.6	84	23.4	1	4	90	0.00	29.705 
06:20	27.6	27.6	27.6	84	23.4	1	3	90	0.00	29.705 
06:25	27.6	27.6	27.6	84	23.4	2	4	90	0.00	29.705 
06:30	27.6	27.6	27.6	84	23.4	2	4	90	0.00	29.703 
06:35	27.6	27.6	27.6	84	23.4	1	3	112	0.00	29.703 
06:40	27.6	27.6	27.6	84	23.4	2	5	90	0.00	29.703 
06:45	27.6	27.6	27.6	84	23.4	2	5	90	0.00	29.713 
06:50	27.8	27.8	27.8	84	23.6	2	4	90	0.00	29.713 
06:55	27.8	27.8	27.8	84	23.6	2	5	90	0.00	29.713 
07:00	27.9	27.9	27.9	84	23.7	2	4	90	0.00	29.709 
07:05	27.9	27.9	27.9	84	23.7	1	4	90	0.00	29.709 
07:10	27.9	27.9	27.9	84	23.7	2	4	112	0.00	29.709 
07:15	28.1	28.1	28.1	84	23.9	2	4	112	0.00	29.701 
07:20	28.1	28.1	28.1	84	23.9	2	5	90	0.00	29.701 
07:25	28.1	28.1	28.1	84	23.9	2	4	90	0.00	29.701 
07:30	27.9	27.9	27.9	84	23.7	2	3	112	0.00	29.701 
07:35	27.9	27.9	27.9	84	23.7	2	4	90	0.00	29.701 
07:40	27.9	27.9	27.9	84	23.7	2	5	90	0.00	29.701 
07:45	27.9	27.9	27.9	84	23.7	2	6	90	0.00	29.702 
07:50	27.9	27.9	27.9	84	23.7	1	4	112	0.00	29.702 
07:55	27.9	27.9	27.9	85	24.0	1	5	112	0.00	29.702 
08:00	27.9	27.9	27.9	85	24.0	2	4	112	0.00	29.702 
08:05	27.8	27.8	27.8	85	23.9	2	4	112	0.00	29.702 
08:10	27.8	27.8	27.8	85	23.9	1	3	112	0.00	29.702 
08:15	27.8	27.8	27.8	85	23.9	2	4	112	0.00	29.703 
08:20	27.8	27.8	27.8	85	23.9	2	4	90	0.00	29.703 
08:25	27.8	27.8	27.8	85	23.9	2	4	90	0.00	29.703 
08:30	27.9	27.9	27.9	85	24.0	2	5	90	0.00	29.704 
08:35	28.1	28.1	28.1	85	24.2	2	3	90	0.00	29.704 
08:40	28.2	28.2	28.2	85	24.3	2	4	90	0.00	29.704 
08:45	28.2	28.2	28.2	84	24.0	2	5	90	0.00	29.704 
08:50	28.4	28.4	28.4	84	24.2	3	6	90	0.00	29.704 
08:55	28.5	28.5	28.5	84	24.3	3	6	112	0.00	29.704 
09:00	28.8	24.4	28.8	83	24.3	4	7	90	0.00	29.703 
09:05	28.8	28.8	28.8	83	24.3	3	7	90	0.00	29.703 
09:10	29.0	29.0	29.0	83	24.5	3	6	90	0.00	29.703 
09:15	29.0	29.0	29.0	83	24.5	3	5	90	0.00	29.702 
09:20	29.1	29.1	29.1	83	24.6	3	10	112	0.00	29.702 
09:25	29.3	29.3	29.3	83	24.8	2	6	90	0.00	29.702 
09:30	29.4	29.4	29.4	83	24.9	3	4	112	0.00	29.712 
09:35	29.7	29.7	29.7	83	25.2	2	4	112	0.00	29.712 
09:40	29.8	29.8	29.8	82	25.0	3	6	90	0.00	29.712 
09:45	30.1	30.1	30.1	82	25.3	2	6	90	0.00	29.718 
09:50	30.3	30.3	30.3	81	25.2	3	5	112	0.00	29.718 
09:55	30.3	30.3	30.3	81	25.2	3	6	90	0.00	29.718 
10:00	30.6	30.6	30.6	82	25.8	3	6	112	0.00	29.718 
10:05	30.9	30.9	30.9	81	25.8	3	7	90	0.00	29.718 
10:10	31.3	31.3	31.3	81	26.2	3	6	112	0.00	29.718 
10:15	31.6	31.6	31.6	80	26.2	3	5	90	0.00	29.715 
10:20	31.9	31.9	31.9	80	26.4	2	4	112	0.00	29.715 
10:25	32.4	32.4	32.4	79	26.6	3	6	112	0.00	29.715 
10:30	32.7	32.7	32.7	77	26.3	3	7	112	0.00	29.709 
10:35	32.8	32.8	32.8	77	26.4	3	6	112	0.00	29.709 
10:40	32.9	32.9	32.9	78	26.8	2	5	90	0.00	29.709 
10:45	33.2	33.2	33.2	77	26.8	3	4	90	0.00	29.703 
10:50	33.8	33.8	33.8	77	27.4	2	6	90	0.00	29.703 
10:55	34.1	34.1	34.1	77	27.7	3	7	90	0.00	29.703 
11:00	34.6	34.6	34.6	75	27.5	3	5	112	0.00	29.699 
11:05	34.9	34.9	34.9	76	28.1	3	7	112	0.00	29.699 
11:10	35.0	31.5	35.0	76	28.2	4	7	112	0.00	29.699 
11:15	35.5	35.5	35.5	75	28.4	2	4	112	0.00	29.698 
11:20	36.0	36.0	36.0	72	27.9	2	6	112	0.00	29.698 
11:25	36.3	36.3	36.3	72	28.2	3	5	112	0.00	29.698 
11:30	36.5	33.3	36.5	72	28.3	4	6	112	0.00	29.697 
11:35	36.8	36.8	36.8	72	28.6	3	9	90	0.00	29.697 
11:40	37.0	33.9	37.0	70	28.1	4	10	90	0.00	29.697 
11:45	37.3	34.2	37.3	71	28.8	4	9	112	0.00	29.684 
11:50	37.6	34.5	37.6	70	28.7	4	7	112	0.00	29.684 
11:55	37.8	37.8	37.8	69	28.6	3	6	112	0.00	29.684 
12:00	37.9	34.9	37.9	68	28.3	4	7	112	0.00	29.677 
12:05	38.0	38.0	38.0	69	28.7	3	6	112	0.00	29.677 
12:10	38.3	38.3	38.3	69	29.0	3	5	112	0.00	29.677 
12:15	38.5	35.6	38.5	70	29.6	4	7	90	0.00	29.670 
12:20	38.8	38.8	38.8	69	29.5	3	6	90	0.00	29.670 
12:25	39.1	36.3	39.1	69	29.8	4	7	90	0.00	29.670 
12:30	39.3	39.3	39.3	69	30.0	3	7	112	0.00	29.663 
12:35	39.6	39.6	39.6	68	29.9	3	6	112	0.00	29.663 
12:40	39.6	39.6	39.6	68	29.9	3	5	90	0.00	29.663 
12:45	39.8	37.1	39.8	67	29.8	4	6	112	0.00	29.657 
12:50	40.1	40.1	40.1	67	30.0	3	7	112	0.00	29.657 
12:55	40.5	37.9	40.5	68	30.8	4	7	112	0.00	29.657 
13:00	40.9	40.9	40.9	66	30.4	3	6	90	0.00	29.652 
13:05	41.3	38.8	41.3	64	30.1	4	7	112	0.00	29.652 
13:10	41.6	39.2	41.6	64	30.3	4	7	112	0.00	29.652 
13:15	41.6	39.2	41.6	63	30.0	4	10	112	0.00	29.647 
13:20	41.9	39.5	41.9	62	29.8	4	10	90	0.00	29.647 
13:25	42.3	40.0	42.3	62	30.2	4	7	90	0.00	29.647 
13:30	42.8	42.8	42.8	62	30.7	2	5	112	0.00	29.641 
13:35	43.3	41.1	43.3	59	29.9	4	10	112	0.00	29.641 
13:40	43.3	41.1	43.3	62	31.2	4	9	112	0.00	29.641 
13:45	43.2	40.2	43.2	59	29.9	5	9	112	0.00	29.632 
13:50	42.9	40.7	42.9	61	30.4	4	7	112	0.00	29.632 
13:55	42.9	40.7	42.9	60	30.0	4	7	112	0.00	29.632 
14:00	43.3	41.1	43.3	61	30.8	4	6	112	0.00	29.629 
14:05	43.8	41.7	43.8	59	30.4	4	8	90	0.00	29.629 
14:10	43.9	43.9	43.9	59	30.5	3	9	112	0.00	29.629 
14:15	43.9	43.9	43.9	61	31.3	3	6	90	0.00	29.625 
14:20	43.9	41.8	43.9	60	30.9	4	9	112	0.00	29.625 
14:25	43.8	41.7	43.8	59	30.4	4	7	112	0.00	29.625 
14:30	43.6	41.5	43.6	61	31.0	4	9	90	0.00	29.625 
14:35	43.9	43.9	43.9	62	31.7	3	8	112	0.00	29.625 
14:40	44.1	42.1	44.1	60	31.1	4	9	90	0.00	29.625 
14:45	44.3	44.3	44.3	60	31.3	3	5	90	0.00	29.626 
14:50	44.5	44.5	44.5	61	31.9	3	6	112	0.00	29.626 
14:55	44.3	41.5	44.3	60	31.3	5	9	112	0.00	29.626 
15:00	44.5	42.5	44.5	60	31.5	4	7	90	0.00	29.621 
15:05	44.6	42.6	44.6	59	31.2	4	10	112	0.00	29.621 
15:10	44.6	41.9	44.6	60	31.6	5	10	90	0.00	29.621 
15:15	44.6	42.6	44.6	60	31.6	4	8	112	0.00	29.626 
15:20	44.5	41.8	44.5	59	31.1	5	10	112	0.00	29.626 
15:25	44.3	40.9	44.3	59	30.9	6	11	90	0.00	29.626 
15:30	44.3	42.3	44.3	60	31.3	4	9	112	0.00	29.633 
15:35	44.3	41.5	44.3	59	30.9	5	9	90	0.00	29.633 
15:40	44.3	42.3	44.3	59	30.9	4	7	112	0.00	29.633 
15:45	44.2	42.2	44.2	59	30.8	4	10	90	0.00	29.639 
15:50	44.2	42.2	44.2	59	30.8	4	10	112	0.00	29.639 
15:55	44.2	42.2	44.2	59	30.8	4	9	112	0.00	29.639 
16:00	44.2	42.2	44.2	59	30.8	4	7	112	0.00	29.643 
16:05	44.1	42.1	44.1	60	31.1	4	10	112	0.00	29.643 
16:10	43.9	43.9	43.9	61	31.3	3	6	90	0.00	29.643 
16:15	43.8	40.9	43.8	60	30.8	5	11	90	0.00	29.640 
16:20	43.8	41.7	43.8	60	30.8	4	7	90	0.00	29.640 
16:25	43.6	41.5	43.6	61	31.0	4	9	112	0.00	29.640 
16:30	43.6	41.5	43.6	61	31.0	4	9	90	0.00	29.643 
16:35	43.8	41.7	43.8	61	31.2	4	7	90	0.00	29.643 
16:40	43.8	43.8	43.8	60	30.8	3	5	112	0.00	29.643 
16:45	43.8	41.7	43.8	61	31.2	4	7	112	0.00	29.652 
16:50	43.6	40.7	43.6	61	31.0	5	12	90	0.00	29.652 
16:55	43.3	39.7	43.3	62	31.2	6	11	90	0.00	29.652 
17:00	43.2	41.0	43.2	63	31.5	4	7	90	0.00	29.651 
17:05	42.9	42.9	42.9	64	31.6	3	6	112	0.00	29.651 
17:10	42.6	42.6	42.6	64	31.3	3	6	90	0.00	29.651 
17:15	42.3	42.3	42.3	66	31.8	2	5	90	0.00	29.658 
17:20	41.9	39.5	41.9	68	32.1	4	11	90	0.00	29.658 
17:25	41.6	39.2	41.6	70	32.6	4	7	90	0.00	29.658 
17:30	41.1	38.6	41.1	71	32.4	4	6	90	0.00	29.662 
17:35	40.8	38.2	40.8	71	32.1	4	9	90	0.00	29.662 
17:40	40.6	38.0	40.6	72	32.3	4	9	90	0.00	29.662 
17:45	40.3	36.8	40.3	71	31.7	5	10	112	0.00	29.663 
17:50	40.1	37.4	40.1	72	31.8	4	7	112	0.00	29.663 
17:55	39.8	39.8	39.8	73	31.9	3	6	112	0.00	29.663 
18:00	39.5	39.5	39.5	73	31.6	3	5	90	0.00	29.666 
18:05	39.2	39.2	39.2	74	31.6	3	7	112	0.00	29.666 
18:10	38.9	38.9	38.9	74	31.3	3	7	90	0.00	29.666 
18:15	38.6	35.7	38.6	74	31.0	4	6	112	0.00	29.666 
18:20	38.5	35.6	38.5	75	31.3	4	9	90	0.00	29.666 
18:25	38.2	35.2	38.2	75	31.0	4	6	90	0.00	29.666 
18:30	38.0	38.0	38.0	76	31.1	3	10	90	0.00	29.681 
18:35	37.9	37.9	37.9	76	31.0	3	6	90	0.00	29.681 
18:40	37.6	37.6	37.6	76	30.7	3	6	90	0.00	29.681 
18:45	37.6	37.6	37.6	76	30.7	3	9	90	0.00	29.681 
18:50	37.6	37.6	37.6	76	30.7	3	6	112	0.00	29.681 
18:55	37.5	34.4	37.5	76	30.6	4	6	112	0.00	29.681 
19:00	37.3	37.3	37.3	76	30.4	3	7	90	0.00	29.678 
19:05	37.2	37.2	37.2	76	30.3	3	7	90	0.00	29.678 
19:10	37.0	37.0	37.0	77	30.5	2	5	112	0.00	29.678 
19:15	36.6	36.6	36.6	78	30.4	2	4	112	0.00	29.682 
19:20	36.2	36.2	36.2	79	30.3	1	6	90	0.00	29.682 
19:25	35.8	35.8	35.8	80	30.2	1	3	90	0.00	29.682 
19:30	35.2	35.2	35.2	81	30.0	0	3	90	0.00	29.685 
19:35	34.7	34.7	34.7	81	29.5	1	3	90	0.00	29.685 
19:40	34.3	34.3	34.3	82	29.4	1	4	112	0.00	29.685 
19:45	34.1	34.1	34.1	82	29.2	1	3	112	0.00	29.687 
19:50	33.8	33.8	33.8	82	28.9	1	3	68	0.00	29.687 
19:55	33.7	33.7	33.7	83	29.1	2	5	112	0.00	29.687 
20:00	33.5	33.5	33.5	82	28.6	3	5	112	0.00	29.688 
20:05	33.4	33.4	33.4	82	28.5	3	6	90	0.00	29.688 
20:10	33.4	33.4	33.4	82	28.5	2	5	90	0.00	29.688 
20:15	33.4	33.4	33.4	82	28.5	2	5	90	0.00	29.695 
20:20	33.2	33.2	33.2	81	28.0	3	6	112	0.00	29.695 
20:25	33.2	33.2	33.2	81	28.0	2	4	112	0.00	29.695 
20:30	33.1	33.1	33.1	81	27.9	2	5	112	0.00	29.695 
20:35	33.1	33.1	33.1	81	27.9	3	6	90	0.00	29.695 
20:40	33.1	33.1	33.1	81	27.9	3	6	112	0.00	29.695 
20:45	33.1	29.3	33.1	81	27.9	4	7	90	0.00	29.690 
20:50	33.1	33.1	33.1	81	27.9	2	4	112	0.00	29.690 
20:55	32.9	32.9	32.9	81	27.7	2	5	112	0.00	29.690 
21:00	32.8	32.8	32.8	81	27.6	2	5	112	0.00	29.689 
21:05	32.8	32.8	32.8	82	27.9	2	6	90	0.00	29.689 
21:10	32.7	32.7	32.7	82	27.8	2	4	90	0.00	29.689 
21:15	32.7	32.7	32.7	81	27.5	2	6	90	0.00	29.689 
21:20	32.5	32.5	32.5	82	27.6	1	4	90	0.00	29.689 
21:25	32.5	32.5	32.5	82	27.6	2	5	90	0.00	29.689 
21:30	32.4	32.4	32.4	82	27.5	1	3	112	0.00	29.687 
21:35	32.4	32.4	32.4	82	27.5	2	5	90	0.00	29.687 
21:40	32.2	32.2	32.2	82	27.3	2	5	112	0.00	29.687 
21:45	32.2	32.2	32.2	82	27.3	2	4	90	0.00	29.686 
21:50	32.2	32.2	32.2	83	27.6	2	3	90	0.00	29.686 
21:55	32.2	32.2	32.2	83	27.6	2	4	112	0.00	29.686 
22:00	32.2	32.2	32.2	82	27.3	2	5	112	0.00	29.686 
22:05	32.2	32.2	32.2	82	27.3	2	5	90	0.00	29.686 
22:10	32.2	32.2	32.2	82	27.3	2	5	112	0.00	29.686 
22:15	32.4	32.4	32.4	83	27.8	2	5	112	0.00	29.680 
22:20	32.4	32.4	32.4	82	27.5	3	6	90	0.00	29.680 
22:25	32.4	32.4	32.4	83	27.8	2	6	90	0.00	29.680 
22:30	32.2	32.2	32.2	83	27.6	3	6	90	0.00	29.671 
22:35	32.2	32.2	32.2	83	27.6	3	4	90	0.00	29.671 
22:40	32.2	32.2	32.2	83	27.6	2	4	112	0.00	29.671 
22:45	32.4	32.4	32.4	83	27.8	2	7	112	0.00	29.667 
22:50	32.4	32.4	32.4	83	27.8	3	5	112	0.00	29.667 
22:55	32.4	32.4	32.4	83	27.8	3	6	112	0.00	29.667 
23:00	32.5	32.5	32.5	83	27.9	2	4	112	0.00	29.662 
23:05	32.5	32.5	32.5	83	27.9	2	5	90	0.00	29.662 
23:10	32.7	32.7	32.7	83	28.1	2	7	112	0.00	29.662 
23:15	32.7	32.7	32.7	83	28.1	3	5	90	0.00	29.646 
23:20	32.5	32.5	32.5	83	27.9	2	5	90	0.00	29.646 
23:25	32.5	32.5	32.5	83	27.9	2	4	90	0.00	29.646 
23:30	32.7	32.7	32.7	83	28.1	2	4	90	0.00	29.645 
23:35	32.7	32.7	32.7	83	28.1	2	4	90	0.00	29.645 
23:40	32.7	32.7	32.7	83	28.1	3	5	90	0.00	29.645 
23:45	32.7	32.7	32.7	83	28.1	2	4	90	0.00	29.646 
23:50	32.7	32.7	32.7	83	28.1	2	5	112	0.00	29.646 
23:55	32.7	32.7	32.7	83	28.1	2	3	112	0.00	29.646 

CoCoRaHS
IN-AL-39
A2 Web Hosting
Creative Commons License
GoDaddy
Look for:

loaded 2017-10-20 19:46:53 • last modified 2010-11-18 10:43:29
Privacy PolicyDisclaimer
• wx.awcolley.com is powered by PmWiki v.2002016 •
• all content (unless otherwise noted) © 2017 A W Colley